Terminal Aerodrome Forecast
Issued by NWS

Home | Current Version | Previous Version | Graphics & Text | Print | Product List | Glossary On
Versions: 1 2 3 4 5 6 7 8 9 10 11 12 13 14 15 16
000
FTUS43 KMPX 201726
TAFRWF
TAF
KRWF 201726Z 2018/2118 18021G30KT P6SM FEW250
     FM210200 16018G26KT P6SM BKN200 WS020/19050KT
     FM211000 17016G26KT P6SM VCSH OVC060
     FM211300 17019G27KT P6SM OVC025=

USA.gov is the U.S. government's official web portal to all federal, state and local government web resources and services.